Time;durP1;ratioP1;P1;durP2;ratioP2;P2;SDS_P1;SDS_P2;PMS_P1;PMS_P2;Temp;Humidity;BMP_temperature;BMP_pressure;BME280_temperature;BME280_humidity;BME280_pressure;Samples;Min_cycle;Max_cycle;Signal;HPM_P1;HPM_P2
2024/04/20 00:00:54;;;;;;;8.30;2.05;;;;;;;3.38;100.00;96861.50;5337290;26;20013;-59
2024/04/20 00:03:22;;;;;;;4.90;2.03;;;;;;;3.29;100.00;96862.81;5347141;26;20019;-59
2024/04/20 00:05:48;;;;;;;7.55;2.35;;;;;;;3.31;100.00;96863.41;5337369;26;20532;-59
2024/04/20 00:08:15;;;;;;;5.18;1.70;;;;;;;3.32;100.00;96866.91;5338696;26;20765;-60
2024/04/20 00:10:41;;;;;;;9.35;2.35;;;;;;;3.26;100.00;96868.59;5339472;26;20041;-58
2024/04/20 00:13:08;;;;;;;7.93;2.78;;;;;;;3.21;100.00;96869.22;5330951;26;20017;-58
2024/04/20 00:15:41;;;;;;;5.25;1.90;;;;;;;3.22;100.00;96868.22;5328039;26;20015;-60
2024/04/20 00:18:09;;;;;;;6.30;2.13;;;;;;;3.22;100.00;96862.03;5337328;26;20009;-59
2024/04/20 00:20:36;;;;;;;5.25;1.63;;;;;;;3.18;100.00;96869.69;5337933;26;20004;-60
2024/04/20 00:23:02;;;;;;;9.23;2.00;;;;;;;3.24;100.00;96868.81;5322470;26;20079;-60
2024/04/20 00:25:29;;;;;;;8.85;1.75;;;;;;;3.25;100.00;96866.97;5339959;26;20015;-58
2024/04/20 00:27:56;;;;;;;12.07;1.92;;;;;;;3.30;100.00;96868.97;5329787;26;20026;-59
2024/04/20 00:30:22;;;;;;;5.45;1.60;;;;;;;3.29;100.00;96872.69;5330775;26;20015;-59
2024/04/20 00:32:49;;;;;;;5.55;1.45;;;;;;;3.30;100.00;96877.81;5342099;26;20051;-59
2024/04/20 00:35:18;;;;;;;8.82;2.65;;;;;;;3.27;100.00;96872.09;5344837;26;20048;-59
2024/04/20 00:37:45;;;;;;;4.32;1.42;;;;;;;3.24;100.00;96884.03;5349071;26;20089;-58
2024/04/20 00:40:11;;;;;;;7.85;2.08;;;;;;;3.20;100.00;96880.16;5331057;26;20042;-60
2024/04/20 00:42:38;;;;;;;7.35;2.70;;;;;;;3.20;100.00;96883.66;5337610;26;20498;-59
2024/04/20 00:45:05;;;;;;;4.82;2.33;;;;;;;3.26;100.00;96890.00;5334239;26;20013;-60
2024/04/20 00:47:31;;;;;;;7.97;2.75;;;;;;;3.35;100.00;96895.88;5338605;26;20381;-59
2024/04/20 00:49:59;;;;;;;7.03;2.45;;;;;;;3.24;100.00;96895.56;5341073;26;20535;-58
2024/04/20 00:52:26;;;;;;;9.77;2.55;;;;;;;3.27;100.00;96896.19;5336845;26;20008;-57
2024/04/20 00:54:53;;;;;;;4.15;1.83;;;;;;;3.21;100.00;96904.00;5334800;26;20015;-60
2024/04/20 00:57:21;;;;;;;6.10;2.00;;;;;;;3.24;100.00;96895.56;5326501;26;22315;-59
2024/04/20 00:59:49;;;;;;;8.43;2.53;;;;;;;3.22;100.00;96897.66;5333359;26;20012;-58
2024/04/20 01:02:16;;;;;;;8.35;2.42;;;;;;;3.16;100.00;96900.38;5333593;26;20009;-59
2024/04/20 01:04:42;;;;;;;8.63;2.30;;;;;;;3.16;100.00;96911.88;5341878;26;20008;-60
2024/04/20 01:07:11;;;;;;;4.47;2.00;;;;;;;3.18;100.00;96904.47;5333247;26;20001;-60
2024/04/20 01:09:38;;;;;;;8.75;2.20;;;;;;;3.12;100.00;96922.19;5339708;26;20004;-59
2024/04/20 01:12:06;;;;;;;8.73;2.10;;;;;;;3.11;100.00;96923.22;5336903;26;20004;-57
2024/04/20 01:14:32;;;;;;;3.97;1.83;;;;;;;3.09;100.00;96921.78;5327563;26;20017;-60
2024/04/20 01:16:59;;;;;;;8.73;2.22;;;;;;;2.97;100.00;96914.47;5301957;26;20005;-60
2024/04/20 01:19:26;;;;;;;7.22;1.80;;;;;;;2.96;100.00;96914.66;5330085;26;19997;-60
2024/04/20 01:21:53;;;;;;;7.38;2.17;;;;;;;2.89;100.00;96920.06;5339591;26;20658;-60
2024/04/20 01:24:24;;;;;;;6.75;2.10;;;;;;;2.93;100.00;96923.94;5311294;26;20010;-60
2024/04/20 01:26:50;;;;;;;7.30;2.00;;;;;;;2.85;100.00;96919.63;5348140;26;20012;-58
2024/04/20 01:29:19;;;;;;;5.85;2.33;;;;;;;2.84;100.00;96920.69;5329312;26;20055;-60
2024/04/20 01:31:45;;;;;;;8.65;2.15;;;;;;;2.81;100.00;96915.78;5340552;26;20023;-60
2024/04/20 01:34:12;;;;;;;6.00;1.92;;;;;;;2.80;100.00;96930.16;5330021;26;20013;-61
2024/04/20 01:36:39;;;;;;;8.35;2.30;;;;;;;2.87;100.00;96924.78;5334207;26;20018;-61
2024/04/20 01:39:05;;;;;;;7.22;1.75;;;;;;;2.79;100.00;96925.84;5356721;26;20008;-60
2024/04/20 01:41:32;;;;;;;9.68;1.80;;;;;;;2.77;100.00;96921.75;5361170;26;20004;-60
2024/04/20 01:43:59;;;;;;;5.63;1.88;;;;;;;2.78;100.00;96931.41;5338198;26;20013;-60
2024/04/20 01:46:25;;;;;;;4.65;1.58;;;;;;;2.76;100.00;96928.94;5336174;26;20001;-60
2024/04/20 01:48:52;;;;;;;5.97;1.42;;;;;;;2.76;100.00;96936.16;5334853;26;20005;-59
2024/04/20 01:51:19;;;;;;;8.73;2.00;;;;;;;2.76;100.00;96933.50;5345053;26;20075;-60
2024/04/20 01:53:45;;;;;;;11.32;2.40;;;;;;;2.76;100.00;96936.97;5336852;26;20001;-60
2024/04/20 01:56:12;;;;;;;6.75;1.92;;;;;;;2.75;100.00;96940.69;5341432;26;21121;-60
2024/04/20 01:58:39;;;;;;;7.30;2.22;;;;;;;2.76;100.00;96947.66;5347922;26;20054;-60
2024/04/20 02:01:06;;;;;;;8.57;2.13;;;;;;;2.74;100.00;96944.41;5349042;26;20023;-60
2024/04/20 02:03:32;;;;;;;9.95;1.73;;;;;;;2.75;100.00;96950.53;5343727;26;20005;-61
2024/04/20 02:05:59;;;;;;;7.38;1.80;;;;;;;2.70;100.00;96946.66;5350951;26;20317;-61
2024/04/20 02:08:26;;;;;;;11.18;2.10;;;;;;;2.73;100.00;96946.25;5359189;26;20017;-61
2024/04/20 02:10:52;;;;;;;7.22;1.85;;;;;;;2.66;100.00;96953.47;5358747;26;20059;-61
2024/04/20 02:13:19;;;;;;;4.85;1.70;;;;;;;2.65;100.00;96953.69;5351096;26;20037;-61
2024/04/20 02:15:46;;;;;;;5.82;1.52;;;;;;;2.62;100.00;96954.94;5340552;26;20016;-60
2024/04/20 02:18:12;;;;;;;5.72;1.92;;;;;;;2.63;100.00;96959.25;5329281;26;20005;-59
2024/04/20 02:20:39;;;;;;;6.53;1.63;;;;;;;2.67;100.00;96954.28;5353604;26;20001;-60
2024/04/20 02:23:06;;;;;;;8.32;2.20;;;;;;;2.63;100.00;96966.44;5335855;26;20015;-60
2024/04/20 02:25:32;;;;;;;9.48;1.77;;;;;;;2.61;100.00;96974.66;5347469;26;20766;-60
2024/04/20 02:27:59;;;;;;;7.80;1.60;;;;;;;2.62;100.00;96970.16;5336408;26;20522;-60
2024/04/20 02:30:26;;;;;;;8.82;2.13;;;;;;;2.59;100.00;96976.72;5338412;26;20001;-61
2024/04/20 02:32:53;;;;;;;7.75;1.98;;;;;;;2.52;100.00;96975.91;5338824;26;20004;-60
2024/04/20 02:35:20;;;;;;;8.60;1.60;;;;;;;2.58;100.00;96972.44;5342754;26;20017;-60
2024/04/20 02:37:47;;;;;;;6.65;2.67;;;;;;;2.52;100.00;96981.28;5343501;26;20029;-60
2024/04/20 02:40:14;;;;;;;7.00;1.90;;;;;;;2.47;100.00;96976.56;5337868;26;20076;-60
2024/04/20 02:42:41;;;;;;;9.55;1.92;;;;;;;2.36;100.00;96963.84;5343946;26;20005;-60
2024/04/20 02:45:15;;;;;;;11.18;2.38;;;;;;;2.32;100.00;96971.47;5340521;26;20623;-60
2024/04/20 02:47:42;;;;;;;8.73;2.35;;;;;;;2.37;100.00;96981.50;5345859;26;20001;-60
2024/04/20 02:50:09;;;;;;;8.10;2.05;;;;;;;2.29;100.00;96982.56;5352199;26;20071;-60
2024/04/20 02:52:36;;;;;;;8.20;2.55;;;;;;;2.29;100.00;96977.22;5331792;26;20016;-60
2024/04/20 02:55:03;;;;;;;5.18;1.83;;;;;;;2.25;100.00;96976.78;5339272;26;20011;-60
2024/04/20 02:57:30;;;;;;;11.38;2.72;;;;;;;2.29;100.00;96978.03;5335547;26;19997;-60
2024/04/20 02:59:57;;;;;;;8.52;2.20;;;;;;;2.28;100.00;96972.91;5326849;26;20726;-60
2024/04/20 03:02:23;;;;;;;8.68;1.90;;;;;;;2.33;100.00;96973.91;5339632;26;20005;-60
2024/04/20 03:04:50;;;;;;;16.63;2.47;;;;;;;2.37;100.00;96971.66;5341027;26;20004;-60
2024/04/20 03:07:16;;;;;;;9.55;2.95;;;;;;;2.31;100.00;96973.31;5343995;26;20079;-60
2024/04/20 03:09:43;;;;;;;14.13;3.25;;;;;;;2.31;100.00;96975.16;5338904;26;20013;-60
2024/04/20 03:12:10;;;;;;;7.05;2.38;;;;;;;2.34;100.00;96980.91;5334270;26;20686;-59
2024/04/20 03:14:36;;;;;;;9.75;2.55;;;;;;;2.36;100.00;96977.19;5344077;26;20016;-60
2024/04/20 03:17:03;;;;;;;8.88;2.10;;;;;;;2.37;100.00;96982.34;5328088;26;20461;-60
2024/04/20 03:19:30;;;;;;;10.75;3.83;;;;;;;2.30;100.00;96987.69;5335793;26;20001;-60
2024/04/20 03:21:56;;;;;;;10.63;2.40;;;;;;;2.28;100.00;96986.28;5327275;26;20001;-60
2024/04/20 03:24:23;;;;;;;6.88;1.67;;;;;;;2.34;100.00;96988.09;5325460;26;20704;-60
2024/04/20 03:26:50;;;;;;;8.23;2.47;;;;;;;2.33;100.00;97005.97;5349060;26;20015;-60
2024/04/20 03:29:16;;;;;;;7.78;2.20;;;;;;;2.33;100.00;97007.84;5350592;26;20001;-60
2024/04/20 03:31:43;;;;;;;12.50;2.63;;;;;;;2.30;100.00;97009.06;5334535;26;20020;-60
2024/04/20 03:34:09;;;;;;;8.82;2.25;;;;;;;2.35;100.00;97011.09;5360386;26;20021;-60
2024/04/20 03:36:36;;;;;;;8.05;2.72;;;;;;;2.39;100.00;97008.84;5355876;26;20057;-60
2024/04/20 03:39:10;;;;;;;8.32;2.20;;;;;;;2.32;100.00;97019.56;5345912;26;20002;-60
2024/04/20 03:41:37;;;;;;;7.05;1.92;;;;;;;2.36;100.00;97020.75;5356265;26;20036;-60
2024/04/20 03:44:04;;;;;;;14.00;3.45;;;;;;;2.30;100.00;97019.75;5346957;26;20008;-60
2024/04/20 03:46:31;;;;;;;12.80;2.65;;;;;;;2.29;100.00;97017.28;5356611;26;20016;-60
2024/04/20 03:48:58;;;;;;;6.05;1.95;;;;;;;2.48;100.00;97020.97;5342214;26;20025;-61
2024/04/20 03:51:25;;;;;;;10.55;2.63;;;;;;;2.40;100.00;97023.84;5358637;26;20076;-60
2024/04/20 03:53:51;;;;;;;10.27;1.98;;;;;;;2.42;100.00;97019.94;5335850;26;20009;-61
2024/04/20 03:56:18;;;;;;;7.95;2.38;;;;;;;2.34;100.00;97026.34;5337013;26;19997;-60
2024/04/20 03:58:45;;;;;;;4.30;1.75;;;;;;;2.39;100.00;97031.03;5345762;26;20028;-61
2024/04/20 04:01:11;;;;;;;12.30;2.40;;;;;;;2.45;100.00;97032.06;5341072;26;20025;-61
2024/04/20 04:03:38;;;;;;;10.55;2.50;;;;;;;2.57;100.00;97035.75;5354160;26;20009;-61
2024/04/20 04:06:05;;;;;;;10.50;2.40;;;;;;;2.44;100.00;97035.78;5346125;26;20012;-60
2024/04/20 04:08:32;;;;;;;21.23;3.25;;;;;;;2.40;100.00;97032.69;5341329;26;20555;-60
2024/04/20 04:11:00;;;;;;;7.75;2.70;;;;;;;2.38;100.00;97044.59;5337205;26;20027;-60
2024/04/20 04:13:27;;;;;;;8.90;2.30;;;;;;;2.46;100.00;97037.19;5333680;26;20015;-60
2024/04/20 04:15:53;;;;;;;7.78;2.15;;;;;;;2.52;100.00;97048.91;5349554;26;20005;-60
2024/04/20 04:18:21;;;;;;;12.20;2.50;;;;;;;2.43;100.00;97048.31;5332422;26;20021;-60
2024/04/20 04:20:48;;;;;;;7.47;2.33;;;;;;;2.42;100.00;97052.00;5352502;26;20023;-61
2024/04/20 04:23:14;;;;;;;7.72;2.72;;;;;;;2.39;100.00;97054.28;5349327;26;20013;-60
2024/04/20 04:25:42;;;;;;;3.83;1.75;;;;;;;2.40;100.00;97056.72;5339424;26;20016;-60
2024/04/20 04:28:08;;;;;;;12.98;2.75;;;;;;;2.42;100.00;97065.38;5337314;26;20000;-60
2024/04/20 04:30:35;;;;;;;8.48;2.17;;;;;;;2.38;100.00;97065.97;5330915;26;20001;-60
2024/04/20 04:33:02;;;;;;;7.45;2.30;;;;;;;2.33;100.00;97075.44;5338391;26;20017;-60
2024/04/20 04:35:29;;;;;;;6.38;2.58;;;;;;;2.32;100.00;97083.69;5354556;26;20001;-60
2024/04/20 04:37:56;;;;;;;6.63;2.05;;;;;;;2.32;100.00;97083.69;5325986;26;20000;-61
2024/04/20 04:40:23;;;;;;;10.13;2.60;;;;;;;2.30;100.00;97086.56;5357188;26;20013;-61
2024/04/20 04:42:51;;;;;;;8.00;2.80;;;;;;;2.35;100.00;97101.94;5345626;26;20019;-61
2024/04/20 04:45:20;;;;;;;8.88;3.03;;;;;;;2.31;100.00;97106.91;5351068;26;20001;-61
2024/04/20 04:47:46;;;;;;;6.57;2.40;;;;;;;2.34;100.00;97111.84;5334627;26;20044;-61
2024/04/20 04:50:13;;;;;;;8.15;2.70;;;;;;;2.37;100.00;97128.47;5341327;26;20016;-61
2024/04/20 04:52:40;;;;;;;7.72;2.58;;;;;;;2.30;100.00;97128.47;5346870;26;19996;-62
2024/04/20 04:55:06;;;;;;;6.05;2.80;;;;;;;2.28;100.00;97127.88;5324861;26;20030;-60
2024/04/20 04:57:33;;;;;;;6.35;2.60;;;;;;;2.32;100.00;97142.47;5323581;26;20529;-60
2024/04/20 05:00:00;;;;;;;8.85;3.47;;;;;;;2.26;100.00;97132.59;5340178;26;20009;-60
2024/04/20 05:02:26;;;;;;;8.60;2.78;;;;;;;2.28;100.00;97134.00;5340846;26;20023;-60
2024/04/20 05:04:53;;;;;;;6.78;2.63;;;;;;;2.39;100.00;97151.28;5333106;26;20016;-61
2024/04/20 05:07:20;;;;;;;6.05;2.80;;;;;;;2.40;100.00;97142.25;5329670;26;20012;-61
2024/04/20 05:09:46;;;;;;;5.80;2.13;;;;;;;2.42;100.00;97158.91;5334925;26;20501;-61
2024/04/20 05:12:13;;;;;;;7.45;2.88;;;;;;;2.55;100.00;97162.63;5320385;26;20777;-61
2024/04/20 05:14:40;;;;;;;8.23;2.80;;;;;;;2.52;100.00;97152.31;5347858;26;20020;-61
2024/04/20 05:17:06;;;;;;;6.32;2.55;;;;;;;2.52;100.00;97176.38;5339617;26;20005;-61
2024/04/20 05:19:33;;;;;;;3.90;2.00;;;;;;;2.47;100.00;97169.00;5336421;26;20530;-60
2024/04/20 05:22:00;;;;;;;5.22;2.05;;;;;;;2.36;100.00;97165.06;5333754;26;23546;-57
2024/04/20 05:24:27;;;;;;;5.60;1.95;;;;;;;2.36;100.00;97169.59;5354178;26;20503;-59
2024/04/20 05:26:53;;;;;;;5.35;2.10;;;;;;;2.32;100.00;97164.66;5325348;26;20057;-62
2024/04/20 05:29:20;;;;;;;5.05;1.90;;;;;;;2.34;100.00;97173.28;5325903;26;20005;-61
2024/04/20 05:31:46;;;;;;;5.03;1.73;;;;;;;2.35;100.00;97171.44;5339334;26;20024;-61
2024/04/20 05:34:13;;;;;;;3.80;2.00;;;;;;;2.41;100.00;97175.97;5327755;26;20023;-60
2024/04/20 05:36:41;;;;;;;5.95;1.98;;;;;;;2.40;100.00;97176.97;5344864;26;20013;-61
2024/04/20 05:39:08;;;;;;;5.53;1.80;;;;;;;2.63;100.00;97183.78;5330685;26;20001;-59
2024/04/20 05:41:35;;;;;;;7.95;2.25;;;;;;;2.69;100.00;97174.94;5336332;26;20628;-61
2024/04/20 05:44:02;;;;;;;8.38;2.65;;;;;;;2.59;100.00;97182.56;5336446;26;20016;-62
2024/04/20 05:46:28;;;;;;;5.10;2.13;;;;;;;2.56;100.00;97185.63;5334215;26;20024;-61
2024/04/20 05:48:55;;;;;;;5.18;1.92;;;;;;;2.57;100.00;97182.75;5346172;26;20493;-61
2024/04/20 05:51:22;;;;;;;5.35;2.30;;;;;;;2.46;100.00;97186.03;5335726;26;20051;-61
2024/04/20 05:53:49;;;;;;;6.35;2.28;;;;;;;2.45;100.00;97193.25;5333286;26;20081;-60
2024/04/20 05:56:16;;;;;;;7.95;2.17;;;;;;;2.47;100.00;97199.19;5333153;26;20077;-61
2024/04/20 05:58:43;;;;;;;6.53;2.30;;;;;;;2.47;100.00;97201.06;5337241;26;20000;-59
2024/04/20 06:01:10;;;;;;;5.22;1.80;;;;;;;2.56;100.00;97207.00;5336371;26;20037;-62
2024/04/20 06:03:37;;;;;;;4.72;1.63;;;;;;;2.40;100.00;97217.06;5322010;26;20067;-62
2024/04/20 06:06:04;;;;;;;9.02;2.08;;;;;;;2.49;100.00;97222.22;5317401;26;20053;-62
2024/04/20 06:08:31;;;;;;;4.10;1.70;;;;;;;2.37;100.00;97224.66;5322569;26;20020;-61
2024/04/20 06:10:58;;;;;;;4.30;1.98;;;;;;;2.43;100.00;97226.56;5317094;26;20848;-62
2024/04/20 06:13:25;;;;;;;4.22;1.80;;;;;;;2.55;100.00;97226.75;5334410;26;20023;-59
2024/04/20 06:15:53;;;;;;;5.60;1.80;;;;;;;2.65;100.00;97232.53;5349080;26;20016;-59
2024/04/20 06:18:19;;;;;;;4.38;1.90;;;;;;;2.70;100.00;97226.56;5332367;26;20080;-59
2024/04/20 06:20:51;;;;;;;6.03;2.33;;;;;;;2.85;100.00;97234.38;5352939;26;20019;-59
2024/04/20 06:23:18;;;;;;;4.47;1.95;;;;;;;2.85;100.00;97231.72;5326634;26;20059;-62
2024/04/20 06:25:45;;;;;;;6.15;1.92;;;;;;;2.93;100.00;97233.34;5330774;26;20021;-63
2024/04/20 06:28:12;;;;;;;6.78;2.28;;;;;;;3.02;100.00;97232.09;5325321;26;20072;-63
2024/04/20 06:30:39;;;;;;;5.07;2.30;;;;;;;3.16;100.00;97232.94;5336398;26;20019;-61
2024/04/20 06:33:05;;;;;;;5.93;2.42;;;;;;;3.15;100.00;97235.81;5339668;26;20005;-61
2024/04/20 06:35:32;;;;;;;7.30;1.90;;;;;;;3.21;100.00;97238.47;5340755;26;20020;-61
2024/04/20 06:37:59;;;;;;;6.20;2.28;;;;;;;3.37;100.00;97239.06;5340379;26;20430;-58
2024/04/20 06:40:26;;;;;;;4.28;2.00;;;;;;;3.37;100.00;97249.78;5331761;26;20025;-60
2024/04/20 06:42:54;;;;;;;6.93;3.03;;;;;;;3.50;100.00;97257.78;5338676;26;20060;-60
2024/04/20 06:45:21;;;;;;;5.22;2.22;;;;;;;3.68;100.00;97267.00;5337838;26;20177;-60
2024/04/20 06:47:47;;;;;;;7.85;2.45;;;;;;;3.84;100.00;97270.28;5333026;26;20001;-59
2024/04/20 06:50:17;;;;;;;3.28;1.85;;;;;;;3.98;100.00;97269.19;5316598;26;20005;-60
2024/04/20 06:52:45;;;;;;;5.13;2.33;;;;;;;4.28;100.00;97278.56;5332555;26;20001;-60
2024/04/20 06:55:11;;;;;;;7.05;3.40;;;;;;;4.20;100.00;97282.28;5330403;26;20550;-60
2024/04/20 06:57:38;;;;;;;4.70;2.03;;;;;;;3.85;100.00;97277.28;5333022;26;20030;-60
2024/04/20 07:00:06;;;;;;;7.30;2.38;;;;;;;4.07;100.00;97283.19;5351853;26;20056;-60
2024/04/20 07:02:33;;;;;;;4.50;2.55;;;;;;;4.11;100.00;97278.19;5328182;26;20004;-60
2024/04/20 07:04:59;;;;;;;7.68;2.70;;;;;;;4.09;100.00;97296.38;5333882;26;20014;-60
2024/04/20 07:07:26;;;;;;;5.50;2.97;;;;;;;3.99;100.00;97303.00;5331031;26;20079;-60
2024/04/20 07:09:53;;;;;;;9.25;2.72;;;;;;;3.87;100.00;97300.13;5329954;26;20012;-60
2024/04/20 07:12:19;;;;;;;8.82;2.90;;;;;;;4.05;100.00;97303.19;5327436;26;20005;-60
2024/04/20 07:14:46;;;;;;;6.78;2.95;;;;;;;4.20;100.00;97311.75;5347900;26;20001;-60
2024/04/20 07:17:13;;;;;;;10.70;3.10;;;;;;;4.10;100.00;97312.22;5332497;26;20674;-60
2024/04/20 07:19:39;;;;;;;4.72;2.85;;;;;;;4.34;100.00;97312.53;5337683;26;20016;-60
2024/04/20 07:22:06;;;;;;;6.68;2.63;;;;;;;4.33;100.00;97321.63;5332227;26;20031;-60
2024/04/20 07:24:33;;;;;;;7.20;2.90;;;;;;;4.36;100.00;97315.00;5318080;26;20015;-60
2024/04/20 07:27:00;;;;;;;5.82;3.03;;;;;;;4.28;100.00;97329.50;5338621;26;20013;-60
2024/04/20 07:29:26;;;;;;;6.68;2.80;;;;;;;4.35;100.00;97324.09;5356260;26;20016;-61
2024/04/20 07:31:53;;;;;;;7.47;2.85;;;;;;;4.27;100.00;97330.50;5336135;26;20016;-61
2024/04/20 07:34:28;;;;;;;6.78;2.50;;;;;;;4.35;100.00;97335.63;5335239;26;20001;-61
2024/04/20 07:36:56;;;;;;;5.80;2.90;;;;;;;4.67;100.00;97343.75;5325937;26;20017;-61
2024/04/20 07:39:26;;;;;;;5.65;2.65;;;;;;;4.98;100.00;97341.31;5339346;26;20442;-61
2024/04/20 07:41:53;;;;;;;5.78;2.60;;;;;;;5.23;100.00;97345.84;5352703;26;20070;-61
2024/04/20 07:44:20;;;;;;;5.60;2.65;;;;;;;5.04;100.00;97344.94;5336650;26;20005;-61
2024/04/20 07:47:00;;;;;;;7.47;2.55;;;;;;;5.19;100.00;97342.78;5339632;26;20920;-61
2024/04/20 07:49:35;;;;;;;6.25;3.05;;;;;;;5.54;100.00;97349.56;5333249;26;20020;-61
2024/04/20 07:52:02;;;;;;;7.30;2.50;;;;;;;5.55;100.00;97359.25;5327276;26;20005;-60
2024/04/20 07:54:29;;;;;;;5.57;2.47;;;;;;;5.13;100.00;97365.16;5347220;26;20008;-60
2024/04/20 07:56:55;;;;;;;8.25;2.85;;;;;;;5.39;100.00;97365.16;5349697;26;20009;-61
2024/04/20 07:59:22;;;;;;;7.13;2.95;;;;;;;5.63;100.00;97360.03;5342113;26;20027;-61
2024/04/20 08:01:50;;;;;;;19.10;8.85;;;;;;;5.67;100.00;97372.78;5330610;26;19997;-61
2024/04/20 08:04:16;;;;;;;11.32;4.35;;;;;;;5.24;100.00;97368.16;5344957;26;20017;-61
2024/04/20 08:06:43;;;;;;;15.93;5.95;;;;;;;5.46;100.00;97371.31;5360543;26;20001;-61
2024/04/20 08:09:10;;;;;;;8.80;4.75;;;;;;;5.48;100.00;97379.94;5330339;26;20006;-61
2024/04/20 08:11:41;;;;;;;11.25;5.57;;;;;;;5.68;100.00;97374.41;5348392;26;20054;-61
2024/04/20 08:14:07;;;;;;;10.85;5.25;;;;;;;5.75;100.00;97381.59;5345229;26;20054;-61
2024/04/20 08:16:34;;;;;;;7.55;3.88;;;;;;;5.56;100.00;97390.44;5363964;26;20739;-61
2024/04/20 08:19:02;;;;;;;8.88;3.35;;;;;;;5.52;100.00;97391.91;5358351;26;20011;-61
2024/04/20 08:21:29;;;;;;;5.53;3.05;;;;;;;5.72;100.00;97380.19;5352466;26;20026;-61
2024/04/20 08:23:56;;;;;;;5.85;3.53;;;;;;;6.11;100.00;97393.47;5349665;26;20015;-61
2024/04/20 08:26:22;;;;;;;6.22;2.80;;;;;;;5.75;100.00;97393.16;5355026;26;20012;-61
2024/04/20 08:28:49;;;;;;;9.45;3.45;;;;;;;5.78;100.00;97394.59;5349212;26;20015;-61
2024/04/20 08:31:15;;;;;;;8.98;3.28;;;;;;;5.84;100.00;97394.53;5359552;26;20005;-61
2024/04/20 08:33:42;;;;;;;8.10;3.28;;;;;;;6.06;100.00;97404.06;5346788;26;20047;-61
2024/04/20 08:36:09;;;;;;;4.75;2.78;;;;;;;6.23;100.00;97404.34;5356716;26;20001;-61
2024/04/20 08:38:35;;;;;;;8.38;3.80;;;;;;;5.81;100.00;97407.56;5328571;26;20032;-61
2024/04/20 08:41:12;;;;;;;6.53;3.50;;;;;;;5.99;100.00;97404.94;5338899;26;19997;-61
2024/04/20 08:43:39;;;;;;;4.97;2.88;;;;;;;5.79;100.00;97407.00;5358367;26;20000;-61
2024/04/20 08:46:08;;;;;;;5.45;2.95;;;;;;;5.69;100.00;97411.00;5321539;26;20408;-61
2024/04/20 08:48:36;;;;;;;10.63;3.47;;;;;;;5.46;100.00;97422.34;5343717;26;20000;-61
2024/04/20 08:51:06;;;;;;;7.93;3.50;;;;;;;5.64;100.00;97424.25;5336781;26;20001;-61
2024/04/20 08:53:34;;;;;;;8.23;3.50;;;;;;;5.64;100.00;97426.94;5325317;26;20000;-61
2024/04/20 08:56:01;;;;;;;6.10;3.00;;;;;;;5.26;100.00;97420.59;5351526;26;20599;-61
2024/04/20 08:58:28;;;;;;;6.35;2.90;;;;;;;5.33;100.00;97421.38;5355345;26;21479;-61
2024/04/20 09:00:58;;;;;;;4.80;2.58;;;;;;;5.42;100.00;97426.50;5326546;26;20008;-60
2024/04/20 09:03:26;;;;;;;7.35;3.10;;;;;;;5.41;100.00;97427.50;5319181;26;20880;-61
2024/04/20 09:05:56;;;;;;;5.82;2.85;;;;;;;5.72;100.00;97432.03;5340331;26;20008;-61
2024/04/20 09:08:24;;;;;;;6.80;3.58;;;;;;;5.93;100.00;97421.13;5329948;26;20012;-61
2024/04/20 09:10:51;;;;;;;6.72;2.75;;;;;;;6.22;100.00;97426.88;5326919;26;20004;-61
2024/04/20 09:13:18;;;;;;;5.38;2.47;;;;;;;6.29;100.00;97430.31;5339795;26;20059;-61
2024/04/20 09:15:46;;;;;;;5.22;2.10;;;;;;;6.44;100.00;97418.38;5348096;26;20015;-61
2024/04/20 09:18:14;;;;;;;3.90;2.30;;;;;;;7.02;100.00;97430.53;5343410;26;20005;-61
2024/04/20 09:20:41;;;;;;;6.90;1.75;;;;;;;7.65;100.00;97427.53;5341643;26;20020;-61
2024/04/20 09:23:08;;;;;;;3.58;1.67;;;;;;;7.65;100.00;97432.94;5332001;26;20018;-61
2024/04/20 09:25:37;;;;;;;3.53;2.05;;;;;;;7.60;100.00;97440.06;5340253;26;20016;-62
2024/04/20 09:28:07;;;;;;;3.47;1.92;;;;;;;7.45;100.00;97444.03;5336779;26;20574;-61
2024/04/20 09:30:34;;;;;;;7.32;2.20;;;;;;;7.24;100.00;97446.19;5323464;26;20028;-61
2024/04/20 09:33:01;;;;;;;3.55;1.80;;;;;;;7.12;100.00;97446.09;5339646;26;20004;-61
2024/04/20 09:35:28;;;;;;;5.25;1.70;;;;;;;6.83;100.00;97462.03;5340622;26;20069;-61
2024/04/20 09:37:57;;;;;;;4.90;2.28;;;;;;;5.99;100.00;97471.31;5349859;26;20070;-61
2024/04/20 09:40:24;;;;;;;3.53;1.70;;;;;;;5.44;100.00;97478.09;5347972;26;20020;-61
2024/04/20 09:42:55;;;;;;;4.47;2.25;;;;;;;5.56;100.00;97468.31;5346406;26;20009;-62
2024/04/20 09:45:27;;;;;;;6.22;2.33;;;;;;;5.57;100.00;97472.66;5338835;26;20061;-62
2024/04/20 09:47:56;;;;;;;4.57;1.88;;;;;;;5.53;100.00;97470.63;5343984;26;20036;-61
2024/04/20 09:50:28;;;;;;;7.57;3.55;;;;;;;5.41;100.00;97478.53;5334910;26;20006;-62
2024/04/20 09:53:06;;;;;;;4.20;2.20;;;;;;;5.45;100.00;97483.28;5344684;26;20013;-61
2024/04/20 09:55:34;;;;;;;6.78;2.40;;;;;;;5.50;100.00;97477.25;5363963;26;20004;-62
2024/04/20 09:58:02;;;;;;;4.20;2.38;;;;;;;6.05;100.00;97483.09;5350542;26;20586;-61
2024/04/20 10:00:32;;;;;;;4.53;2.50;;;;;;;6.85;100.00;97477.94;5351725;26;20019;-62
2024/04/20 10:03:00;;;;;;;4.68;2.28;;;;;;;7.03;100.00;97469.03;5338549;26;20001;-61
2024/04/20 10:05:27;;;;;;;5.85;2.53;;;;;;;6.82;100.00;97473.00;5323136;26;20017;-61
2024/04/20 10:07:54;;;;;;;3.83;1.85;;;;;;;6.52;100.00;97482.63;5337706;26;20543;-60
2024/04/20 10:10:25;;;;;;;4.53;1.90;;;;;;;6.43;100.00;97489.34;5342191;26;20076;-61
2024/04/20 10:12:59;;;;;;;8.65;2.20;;;;;;;6.44;100.00;97486.44;5339276;26;20017;-62
2024/04/20 10:15:28;;;;;;;4.22;1.88;;;;;;;6.50;100.00;97490.13;5355819;26;20046;-61
2024/04/20 10:17:56;;;;;;;4.20;2.00;;;;;;;6.34;100.00;97497.72;5335994;26;20023;-62
2024/04/20 10:20:37;;;;;;;4.65;2.00;;;;;;;6.71;100.00;97496.13;5338162;26;20008;-61
2024/04/20 10:23:17;;;;;;;4.30;1.77;;;;;;;7.20;100.00;97490.78;5336040;26;20687;-61
2024/04/20 10:25:49;;;;;;;6.67;2.07;;;;;;;7.08;100.00;97496.06;5337223;26;20013;-62
2024/04/20 10:28:30;;;;;;;5.97;1.77;;;;;;;7.23;100.00;97487.59;5354932;26;20750;-62
2024/04/20 10:30:59;;;;;;;5.22;2.13;;;;;;;6.56;100.00;97497.28;5333687;26;20516;-61
2024/04/20 10:33:35;;;;;;;5.43;2.38;;;;;;;6.51;100.00;97497.13;5349484;26;20000;-61
2024/04/20 10:36:11;;;;;;;3.30;1.80;;;;;;;6.87;100.00;97498.22;5347285;26;20686;-61
2024/04/20 10:38:39;;;;;;;3.95;1.75;;;;;;;7.34;100.00;97496.78;5335742;26;20016;-61
2024/04/20 10:41:13;;;;;;;3.75;1.80;;;;;;;7.53;100.00;97500.25;5331852;26;20013;-61
2024/04/20 10:43:44;;;;;;;3.70;1.98;;;;;;;7.14;100.00;97497.06;5329498;26;20013;-61
2024/04/20 10:46:11;;;;;;;4.38;1.90;;;;;;;7.56;100.00;97501.69;5350405;26;20053;-61
2024/04/20 10:48:40;;;;;;;4.40;2.75;;;;;;;8.12;100.00;97493.38;5341946;26;20033;-61
2024/04/20 10:51:12;;;;;;;5.75;2.60;;;;;;;7.93;100.00;97498.84;5332382;26;20830;-61
2024/04/20 10:53:42;;;;;;;3.73;1.90;;;;;;;7.70;100.00;97505.00;5337264;26;20015;-62
2024/04/20 10:56:09;;;;;;;4.32;1.60;;;;;;;7.55;100.00;97506.25;5342795;26;20357;-61
2024/04/20 10:58:40;;;;;;;5.30;1.75;;;;;;;7.88;100.00;97501.41;5336699;26;20012;-60
2024/04/20 11:01:08;;;;;;;4.55;1.90;;;;;;;7.94;100.00;97499.69;5334143;26;20012;-61
2024/04/20 11:03:35;;;;;;;3.20;1.70;;;;;;;8.22;100.00;97503.56;5353950;26;20055;-60
2024/04/20 11:06:02;;;;;;;6.80;2.10;;;;;;;8.75;100.00;97502.88;5342701;26;19997;-60
2024/04/20 11:08:29;;;;;;;4.28;1.73;;;;;;;8.57;100.00;97510.91;5340731;26;20026;-60
2024/04/20 11:11:02;;;;;;;5.85;1.77;;;;;;;8.92;100.00;97511.91;5350500;26;19997;-61
2024/04/20 11:13:31;;;;;;;6.00;1.90;;;;;;;8.75;100.00;97509.13;5352911;26;20023;-62
2024/04/20 11:15:58;;;;;;;3.15;1.48;;;;;;;8.02;100.00;97512.00;5350627;26;20029;-61
2024/04/20 11:18:25;;;;;;;4.85;1.73;;;;;;;7.97;100.00;97510.00;5332539;26;20016;-60
2024/04/20 11:20:52;;;;;;;2.55;1.75;;;;;;;8.30;98.80;97518.59;5346439;26;20019;-61
2024/04/20 11:23:19;;;;;;;4.82;1.80;;;;;;;8.08;100.00;97519.16;5337343;26;20447;-61
2024/04/20 11:25:56;;;;;;;5.55;2.80;;;;;;;7.90;100.00;97522.75;5350042;26;20055;-61
2024/04/20 11:28:24;;;;;;;5.78;2.13;;;;;;;8.03;100.00;97525.25;5356827;26;20029;-61
2024/04/20 11:30:51;;;;;;;4.68;2.13;;;;;;;7.92;98.10;97521.47;5351716;26;20001;-60
2024/04/20 11:33:18;;;;;;;4.22;1.88;;;;;;;7.64;100.00;97522.94;5344545;26;20012;-61